This demonstration page uses our WeatherBlox Daily Observations layout. Learn more.

38.88101, -77.10428

Hourly Observations for September 20, 2019

Temp ( °F °C ) Dew Point ( °F °C ) Humidity (%) Winds ( mph kmh ) Pressure ( in mb ) Visibility ( mi km ) Precip ( " mm )
12:52 am 00:52 Mostly Clear 61 16.1 51 10.6 70 70 SW 3 6 30.27 1025 10 16.09344 0 0
1:52 am 01:52 Mostly Clear 60 15.6 51 10.6 72 72 SW 3 6 30.27 1025 10 16.09344 0 0
2:52 am 02:52 Mostly Clear 57 13.9 51 10.6 81 81 WSW 5 7 30.3 1026 10 16.09344 0 0
3:52 am 03:52 Mostly Clear 58 14.4 51 10.6 78 78 SSW 5 7 30.27 1025 10 16.09344 0 0
4:52 am 04:52 Mostly Clear 58 14.4 50 10 75 75 S 3 6 30.3 1026 10 16.09344 0 0
5:52 am 05:52 Partly Cloudy 57 13.9 50 10 78 78 SSW 6 9 30.3 1026 10 16.09344 0 0
6:52 am 06:52 Partly Cloudy 56 13.3 50 10 81 81 WSW 6 9 30.3 1026 10 16.09344 0 0
7:52 am 07:52 Partly Cloudy 59 15 54 12.2 83 83 WSW 3 6 30.33 1027 10 16.09344 0 0
8:52 am 08:52 Partly Cloudy 62 16.7 54 12.2 75 75 SSW 7 11 30.33 1027 10 16.09344 0 0
9:52 am 09:52 Mostly Cloudy 67 19.4 55 12.8 66 66 S 7 11 30.33 1027 10 16.09344 0 0
10:52 am 10:52 Mostly Cloudy 70 21.1 54 12.2 57 57 S 9 15 30.3 1026 10 16.09344 0 0
11:52 am 11:52 Mostly Cloudy 72 22.2 54 12.2 53 53 S 10 17 30.3 1026 10 16.09344 0 0
12:52 pm 12:52 Mostly Cloudy 74 23.3 52 11.1 46 46 SSE 12 19 30.27 1025 10 16.09344 0 0
1:52 pm 13:52 Mostly Cloudy 78 25.6 49 9.4 36 36 S 14 22 30.24 1024 10 16.09344 0 0
2:52 pm 14:52 Mostly Cloudy 78 25.6 48 8.9 35 35 SSW 9 15 30.21 1023 10 16.09344 0 0
3:52 pm 15:52 Partly Cloudy 78 25.6 53 11.7 42 42 SSE 12 19 30.21 1023 10 16.09344 0 0
4:52 pm 16:52 Partly Cloudy 78 25.6 53 11.7 42 42 SSE 10 17 30.18 1022 10 16.09344 0 0
5:52 pm 17:52 Partly Cloudy 78 25.6 52 11.1 40 40 S 12 19 30.18 1022 10 16.09344 0 0
6:52 pm 18:52 Partly Cloudy 75 23.9 53 11.7 46 46 S 7 11 30.21 1023 10 16.09344 0 0
7:52 pm 19:52 Mostly Clear 73 22.8 54 12.2 51 51 S 8 13 30.21 1023 10 16.09344 0 0
8:52 pm 20:52 Clear 70 21.1 56 13.3 61 61 SSW 7 11 30.21 1023 10 16.09344 0 0
9:52 pm 21:52 Clear 68 20 57 13.9 68 68 SSW 6 9 30.21 1023 10 16.09344 0 0
10:52 pm 22:52 Clear 67 19.4 58 14.4 73 73 SSW 7 11 30.21 1023 10 16.09344 0 0
11:52 pm 23:52 Clear 67 19.4 57 13.9 71 71 SSW 6 9 30.21 1023 10 16.09344 0 0

Powered by AerisWeather